sensor_id;sensor_type;location;lat;lon;timestamp;temperature;humidity
12006;DHT22;6062;47.294;12.182;2022-11-20T00:01:24;1.00;63.00
12006;DHT22;6062;47.294;12.182;2022-11-20T00:03:52;1.00;63.20
12006;DHT22;6062;47.294;12.182;2022-11-20T00:06:19;1.00;63.20
12006;DHT22;6062;47.294;12.182;2022-11-20T00:08:47;1.00;63.10
12006;DHT22;6062;47.294;12.182;2022-11-20T00:11:15;1.00;63.10
12006;DHT22;6062;47.294;12.182;2022-11-20T00:13:47;1.00;63.30
12006;DHT22;6062;47.294;12.182;2022-11-20T00:16:16;1.00;63.20
12006;DHT22;6062;47.294;12.182;2022-11-20T00:18:44;1.00;63.30
12006;DHT22;6062;47.294;12.182;2022-11-20T00:21:16;1.00;63.50
12006;DHT22;6062;47.294;12.182;2022-11-20T00:23:44;1.00;63.50
12006;DHT22;6062;47.294;12.182;2022-11-20T00:26:12;1.00;63.50
12006;DHT22;6062;47.294;12.182;2022-11-20T00:28:41;1.00;63.50
12006;DHT22;6062;47.294;12.182;2022-11-20T00:31:15;1.00;63.30
12006;DHT22;6062;47.294;12.182;2022-11-20T00:33:41;1.00;63.30
12006;DHT22;6062;47.294;12.182;2022-11-20T00:36:22;1.00;63.20
12006;DHT22;6062;47.294;12.182;2022-11-20T00:38:56;1.10;63.30
12006;DHT22;6062;47.294;12.182;2022-11-20T00:41:24;1.10;63.30
12006;DHT22;6062;47.294;12.182;2022-11-20T00:43:53;1.10;63.00
12006;DHT22;6062;47.294;12.182;2022-11-20T00:46:21;1.10;62.80
12006;DHT22;6062;47.294;12.182;2022-11-20T00:48:48;1.10;62.60
12006;DHT22;6062;47.294;12.182;2022-11-20T00:51:17;1.10;62.50
12006;DHT22;6062;47.294;12.182;2022-11-20T00:53:45;1.10;62.50
12006;DHT22;6062;47.294;12.182;2022-11-20T00:56:14;1.10;62.40
12006;DHT22;6062;47.294;12.182;2022-11-20T00:58:43;1.10;62.40
12006;DHT22;6062;47.294;12.182;2022-11-20T01:01:13;1.10;62.30
12006;DHT22;6062;47.294;12.182;2022-11-20T01:03:42;1.10;62.20
12006;DHT22;6062;47.294;12.182;2022-11-20T01:06:22;1.10;62.30
12006;DHT22;6062;47.294;12.182;2022-11-20T01:08:49;1.10;62.30
12006;DHT22;6062;47.294;12.182;2022-11-20T01:11:19;1.10;62.30
12006;DHT22;6062;47.294;12.182;2022-11-20T01:13:48;1.10;62.40
12006;DHT22;6062;47.294;12.182;2022-11-20T01:18:46;1.10;62.40
12006;DHT22;6062;47.294;12.182;2022-11-20T01:21:21;1.10;63.00
12006;DHT22;6062;47.294;12.182;2022-11-20T01:23:49;1.10;62.30
12006;DHT22;6062;47.294;12.182;2022-11-20T01:26:19;1.10;62.20
12006;DHT22;6062;47.294;12.182;2022-11-20T01:28:50;1.10;62.00
12006;DHT22;6062;47.294;12.182;2022-11-20T01:31:18;1.10;61.90
12006;DHT22;6062;47.294;12.182;2022-11-20T01:33:50;1.10;61.90
12006;DHT22;6062;47.294;12.182;2022-11-20T01:36:18;1.00;61.80
12006;DHT22;6062;47.294;12.182;2022-11-20T01:38:45;1.00;61.70
12006;DHT22;6062;47.294;12.182;2022-11-20T01:41:13;1.00;61.80
12006;DHT22;6062;47.294;12.182;2022-11-20T01:44:00;1.00;61.90
12006;DHT22;6062;47.294;12.182;2022-11-20T01:46:27;1.00;62.60
12006;DHT22;6062;47.294;12.182;2022-11-20T01:49:18;1.00;61.90
12006;DHT22;6062;47.294;12.182;2022-11-20T01:52:20;1.00;62.20
12006;DHT22;6062;47.294;12.182;2022-11-20T01:55:22;1.00;62.40
12006;DHT22;6062;47.294;12.182;2022-11-20T01:57:54;1.00;62.60
12006;DHT22;6062;47.294;12.182;2022-11-20T02:00:20;0.90;62.40
12006;DHT22;6062;47.294;12.182;2022-11-20T02:02:52;1.00;62.50
12006;DHT22;6062;47.294;12.182;2022-11-20T02:05:40;1.00;62.50
12006;DHT22;6062;47.294;12.182;2022-11-20T02:08:11;1.00;62.60
12006;DHT22;6062;47.294;12.182;2022-11-20T02:10:38;1.00;62.50
12006;DHT22;6062;47.294;12.182;2022-11-20T02:13:04;1.00;62.50
12006;DHT22;6062;47.294;12.182;2022-11-20T02:15:49;1.00;62.50
12006;DHT22;6062;47.294;12.182;2022-11-20T02:18:17;1.00;62.50
12006;DHT22;6062;47.294;12.182;2022-11-20T02:20:47;1.00;62.60
12006;DHT22;6062;47.294;12.182;2022-11-20T02:23:24;1.00;62.60
12006;DHT22;6062;47.294;12.182;2022-11-20T02:26:07;1.00;62.60
12006;DHT22;6062;47.294;12.182;2022-11-20T02:28:37;1.00;62.50
12006;DHT22;6062;47.294;12.182;2022-11-20T02:31:02;1.00;62.40
12006;DHT22;6062;47.294;12.182;2022-11-20T02:33:28;1.10;62.40
12006;DHT22;6062;47.294;12.182;2022-11-20T02:35:54;1.10;62.30
12006;DHT22;6062;47.294;12.182;2022-11-20T02:38:20;1.10;62.30
12006;DHT22;6062;47.294;12.182;2022-11-20T02:40:45;1.10;62.20
12006;DHT22;6062;47.294;12.182;2022-11-20T02:43:11;1.10;62.20
12006;DHT22;6062;47.294;12.182;2022-11-20T02:45:37;1.10;62.30
12006;DHT22;6062;47.294;12.182;2022-11-20T02:48:03;1.10;62.20
12006;DHT22;6062;47.294;12.182;2022-11-20T02:50:29;1.10;62.20
12006;DHT22;6062;47.294;12.182;2022-11-20T02:52:54;1.10;62.20
12006;DHT22;6062;47.294;12.182;2022-11-20T02:55:20;1.10;62.20
12006;DHT22;6062;47.294;12.182;2022-11-20T02:57:46;1.10;62.30
12006;DHT22;6062;47.294;12.182;2022-11-20T03:00:12;1.10;62.50
12006;DHT22;6062;47.294;12.182;2022-11-20T03:02:38;1.10;62.70
12006;DHT22;6062;47.294;12.182;2022-11-20T03:05:03;1.10;62.80
12006;DHT22;6062;47.294;12.182;2022-11-20T03:07:29;1.10;62.80
12006;DHT22;6062;47.294;12.182;2022-11-20T03:09:55;1.10;63.00
12006;DHT22;6062;47.294;12.182;2022-11-20T03:12:20;1.10;63.10
12006;DHT22;6062;47.294;12.182;2022-11-20T03:14:46;1.00;63.40
12006;DHT22;6062;47.294;12.182;2022-11-20T03:17:12;1.00;64.40
12006;DHT22;6062;47.294;12.182;2022-11-20T03:19:37;1.00;63.90
12006;DHT22;6062;47.294;12.182;2022-11-20T03:22:03;1.00;63.80
12006;DHT22;6062;47.294;12.182;2022-11-20T03:24:29;0.90;63.60
12006;DHT22;6062;47.294;12.182;2022-11-20T03:26:54;1.00;63.50
12006;DHT22;6062;47.294;12.182;2022-11-20T03:29:20;0.90;63.20
12006;DHT22;6062;47.294;12.182;2022-11-20T03:31:46;0.90;63.70
12006;DHT22;6062;47.294;12.182;2022-11-20T03:34:12;0.90;63.00
12006;DHT22;6062;47.294;12.182;2022-11-20T03:36:38;0.90;62.90
12006;DHT22;6062;47.294;12.182;2022-11-20T03:39:05;0.80;62.80
12006;DHT22;6062;47.294;12.182;2022-11-20T03:41:35;0.80;62.90
12006;DHT22;6062;47.294;12.182;2022-11-20T03:44:04;0.80;63.10
12006;DHT22;6062;47.294;12.182;2022-11-20T03:46:32;0.80;63.30
12006;DHT22;6062;47.294;12.182;2022-11-20T03:48:58;0.70;63.80
12006;DHT22;6062;47.294;12.182;2022-11-20T03:51:26;0.70;63.80
12006;DHT22;6062;47.294;12.182;2022-11-20T03:53:55;0.70;63.80
12006;DHT22;6062;47.294;12.182;2022-11-20T03:56:28;0.70;64.00
12006;DHT22;6062;47.294;12.182;2022-11-20T03:58:56;0.70;64.10
12006;DHT22;6062;47.294;12.182;2022-11-20T04:01:24;0.70;63.90
12006;DHT22;6062;47.294;12.182;2022-11-20T04:03:52;0.70;64.00
12006;DHT22;6062;47.294;12.182;2022-11-20T04:06:22;0.70;64.10
12006;DHT22;6062;47.294;12.182;2022-11-20T04:08:50;0.70;64.30
12006;DHT22;6062;47.294;12.182;2022-11-20T04:11:27;0.70;64.40
12006;DHT22;6062;47.294;12.182;2022-11-20T04:13:59;0.70;64.30
12006;DHT22;6062;47.294;12.182;2022-11-20T04:16:29;0.60;63.90
12006;DHT22;6062;47.294;12.182;2022-11-20T04:18:57;0.60;63.90
12006;DHT22;6062;47.294;12.182;2022-11-20T04:21:25;0.60;64.00
12006;DHT22;6062;47.294;12.182;2022-11-20T04:23:53;0.60;64.20
12006;DHT22;6062;47.294;12.182;2022-11-20T04:26:20;0.60;64.20
12006;DHT22;6062;47.294;12.182;2022-11-20T04:28:47;0.60;64.30
12006;DHT22;6062;47.294;12.182;2022-11-20T04:31:15;0.60;64.50
12006;DHT22;6062;47.294;12.182;2022-11-20T04:33:43;0.50;64.50
12006;DHT22;6062;47.294;12.182;2022-11-20T04:36:14;0.60;64.50
12006;DHT22;6062;47.294;12.182;2022-11-20T04:38:51;0.60;65.30
12006;DHT22;6062;47.294;12.182;2022-11-20T04:41:23;0.60;64.70
12006;DHT22;6062;47.294;12.182;2022-11-20T04:43:58;0.60;64.70
12006;DHT22;6062;47.294;12.182;2022-11-20T04:46:28;0.60;64.60
12006;DHT22;6062;47.294;12.182;2022-11-20T04:48:59;0.60;64.50
12006;DHT22;6062;47.294;12.182;2022-11-20T04:51:25;0.60;64.50
12006;DHT22;6062;47.294;12.182;2022-11-20T04:53:51;0.60;65.00
12006;DHT22;6062;47.294;12.182;2022-11-20T04:56:18;0.60;64.70
12006;DHT22;6062;47.294;12.182;2022-11-20T04:58:44;0.60;65.00
12006;DHT22;6062;47.294;12.182;2022-11-20T05:01:13;0.60;65.00
12006;DHT22;6062;47.294;12.182;2022-11-20T05:03:49;0.60;65.20
12006;DHT22;6062;47.294;12.182;2022-11-20T05:06:17;0.60;65.30
12006;DHT22;6062;47.294;12.182;2022-11-20T05:08:44;0.50;65.70
12006;DHT22;6062;47.294;12.182;2022-11-20T05:11:13;0.50;65.40
12006;DHT22;6062;47.294;12.182;2022-11-20T05:13:41;0.50;65.80
12006;DHT22;6062;47.294;12.182;2022-11-20T05:16:16;0.50;65.50
12006;DHT22;6062;47.294;12.182;2022-11-20T05:18:43;0.50;65.70
12006;DHT22;6062;47.294;12.182;2022-11-20T05:21:11;0.50;65.60
12006;DHT22;6062;47.294;12.182;2022-11-20T05:23:38;0.50;65.80
12006;DHT22;6062;47.294;12.182;2022-11-20T05:26:06;0.40;66.00
12006;DHT22;6062;47.294;12.182;2022-11-20T05:28:33;0.40;66.20
12006;DHT22;6062;47.294;12.182;2022-11-20T05:31:13;0.30;66.20
12006;DHT22;6062;47.294;12.182;2022-11-20T05:33:42;0.30;66.70
12006;DHT22;6062;47.294;12.182;2022-11-20T05:36:10;0.20;66.80
12006;DHT22;6062;47.294;12.182;2022-11-20T05:38:37;0.10;67.10
12006;DHT22;6062;47.294;12.182;2022-11-20T05:41:14;0.10;67.20
12006;DHT22;6062;47.294;12.182;2022-11-20T05:43:43;0.10;67.90
12006;DHT22;6062;47.294;12.182;2022-11-20T05:46:12;0.10;67.70
12006;DHT22;6062;47.294;12.182;2022-11-20T05:48:40;0.10;67.60
12006;DHT22;6062;47.294;12.182;2022-11-20T05:51:09;0.10;68.00
12006;DHT22;6062;47.294;12.182;2022-11-20T05:53:36;0.10;68.00
12006;DHT22;6062;47.294;12.182;2022-11-20T05:56:14;0.20;67.90
12006;DHT22;6062;47.294;12.182;2022-11-20T05:58:42;0.10;68.00
12006;DHT22;6062;47.294;12.182;2022-11-20T06:01:19;0.10;67.70
12006;DHT22;6062;47.294;12.182;2022-11-20T06:03:47;0.10;68.00
12006;DHT22;6062;47.294;12.182;2022-11-20T06:06:16;0.10;67.80
12006;DHT22;6062;47.294;12.182;2022-11-20T06:08:44;0.10;68.20
12006;DHT22;6062;47.294;12.182;2022-11-20T06:11:11;0.10;68.30
12006;DHT22;6062;47.294;12.182;2022-11-20T06:13:38;0.10;68.10
12006;DHT22;6062;47.294;12.182;2022-11-20T06:16:04;0.10;68.20
12006;DHT22;6062;47.294;12.182;2022-11-20T06:18:30;0.20;68.20
12006;DHT22;6062;47.294;12.182;2022-11-20T06:21:04;0.20;68.30
12006;DHT22;6062;47.294;12.182;2022-11-20T06:23:33;0.20;68.30
12006;DHT22;6062;47.294;12.182;2022-11-20T06:26:08;0.20;68.20
12006;DHT22;6062;47.294;12.182;2022-11-20T06:28:37;0.20;68.00
12006;DHT22;6062;47.294;12.182;2022-11-20T06:31:03;0.20;67.80
12006;DHT22;6062;47.294;12.182;2022-11-20T06:33:30;0.20;67.50
12006;DHT22;6062;47.294;12.182;2022-11-20T06:35:57;0.30;67.40
12006;DHT22;6062;47.294;12.182;2022-11-20T06:38:24;0.30;67.90
12006;DHT22;6062;47.294;12.182;2022-11-20T06:40:50;0.30;66.80
12006;DHT22;6062;47.294;12.182;2022-11-20T06:43:16;0.40;66.40
12006;DHT22;6062;47.294;12.182;2022-11-20T06:45:41;0.40;66.10
12006;DHT22;6062;47.294;12.182;2022-11-20T06:48:08;0.40;65.80
12006;DHT22;6062;47.294;12.182;2022-11-20T06:50:36;0.40;65.70
12006;DHT22;6062;47.294;12.182;2022-11-20T06:53:03;0.50;65.90
12006;DHT22;6062;47.294;12.182;2022-11-20T06:55:30;0.50;66.00
12006;DHT22;6062;47.294;12.182;2022-11-20T06:57:57;0.50;66.20
12006;DHT22;6062;47.294;12.182;2022-11-20T07:00:22;0.60;66.40
12006;DHT22;6062;47.294;12.182;2022-11-20T07:02:48;0.60;66.20
12006;DHT22;6062;47.294;12.182;2022-11-20T07:05:14;0.60;66.20
12006;DHT22;6062;47.294;12.182;2022-11-20T07:07:40;0.70;66.30
12006;DHT22;6062;47.294;12.182;2022-11-20T07:10:06;0.70;66.60
12006;DHT22;6062;47.294;12.182;2022-11-20T07:12:32;0.70;66.80
12006;DHT22;6062;47.294;12.182;2022-11-20T07:14:57;0.80;66.90
12006;DHT22;6062;47.294;12.182;2022-11-20T07:17:23;0.80;67.10
12006;DHT22;6062;47.294;12.182;2022-11-20T07:19:49;0.80;67.20
12006;DHT22;6062;47.294;12.182;2022-11-20T07:22:14;0.90;67.10
12006;DHT22;6062;47.294;12.182;2022-11-20T07:24:40;0.90;66.90
12006;DHT22;6062;47.294;12.182;2022-11-20T07:27:05;1.00;66.60
12006;DHT22;6062;47.294;12.182;2022-11-20T07:29:31;1.10;67.00
12006;DHT22;6062;47.294;12.182;2022-11-20T07:31:57;1.20;66.10
12006;DHT22;6062;47.294;12.182;2022-11-20T07:34:23;1.20;66.00
12006;DHT22;6062;47.294;12.182;2022-11-20T07:36:49;1.30;66.00
12006;DHT22;6062;47.294;12.182;2022-11-20T07:39:14;1.50;66.10
12006;DHT22;6062;47.294;12.182;2022-11-20T07:41:40;1.60;65.90
12006;DHT22;6062;47.294;12.182;2022-11-20T07:44:06;1.70;65.60
12006;DHT22;6062;47.294;12.182;2022-11-20T07:46:31;1.90;65.20
12006;DHT22;6062;47.294;12.182;2022-11-20T07:48:57;2.00;64.70
12006;DHT22;6062;47.294;12.182;2022-11-20T07:51:23;2.10;64.10
12006;DHT22;6062;47.294;12.182;2022-11-20T07:53:51;2.30;63.80
12006;DHT22;6062;47.294;12.182;2022-11-20T07:56:17;2.40;63.20
12006;DHT22;6062;47.294;12.182;2022-11-20T07:58:43;2.40;62.70
12006;DHT22;6062;47.294;12.182;2022-11-20T08:01:08;2.50;62.20
12006;DHT22;6062;47.294;12.182;2022-11-20T08:03:35;2.60;61.90
12006;DHT22;6062;47.294;12.182;2022-11-20T08:06:03;2.60;61.70
12006;DHT22;6062;47.294;12.182;2022-11-20T08:08:29;2.70;61.20
12006;DHT22;6062;47.294;12.182;2022-11-20T08:10:58;2.70;61.00
12006;DHT22;6062;47.294;12.182;2022-11-20T08:13:42;2.80;61.00
12006;DHT22;6062;47.294;12.182;2022-11-20T08:16:27;2.90;61.10
12006;DHT22;6062;47.294;12.182;2022-11-20T08:18:53;3.00;60.90
12006;DHT22;6062;47.294;12.182;2022-11-20T08:21:19;3.00;60.50
12006;DHT22;6062;47.294;12.182;2022-11-20T08:23:45;3.10;60.20
12006;DHT22;6062;47.294;12.182;2022-11-20T08:26:10;3.20;60.00
12006;DHT22;6062;47.294;12.182;2022-11-20T08:28:36;3.30;59.90
12006;DHT22;6062;47.294;12.182;2022-11-20T08:31:03;3.30;60.00
12006;DHT22;6062;47.294;12.182;2022-11-20T08:33:29;3.40;59.90
12006;DHT22;6062;47.294;12.182;2022-11-20T08:36:02;3.60;59.90
12006;DHT22;6062;47.294;12.182;2022-11-20T08:38:30;3.60;59.80
12006;DHT22;6062;47.294;12.182;2022-11-20T08:40:57;3.80;59.80
12006;DHT22;6062;47.294;12.182;2022-11-20T08:43:42;3.90;59.40
12006;DHT22;6062;47.294;12.182;2022-11-20T08:46:08;4.00;58.90
12006;DHT22;6062;47.294;12.182;2022-11-20T08:48:34;4.10;58.50
12006;DHT22;6062;47.294;12.182;2022-11-20T08:50:59;4.10;58.20
12006;DHT22;6062;47.294;12.182;2022-11-20T08:53:26;4.10;57.80
12006;DHT22;6062;47.294;12.182;2022-11-20T08:55:52;4.10;57.40
12006;DHT22;6062;47.294;12.182;2022-11-20T08:58:18;4.10;57.10
12006;DHT22;6062;47.294;12.182;2022-11-20T09:00:43;4.10;57.10
12006;DHT22;6062;47.294;12.182;2022-11-20T09:03:09;4.00;57.70
12006;DHT22;6062;47.294;12.182;2022-11-20T09:05:34;4.20;59.60
12006;DHT22;6062;47.294;12.182;2022-11-20T09:08:00;4.40;61.20
12006;DHT22;6062;47.294;12.182;2022-11-20T09:10:27;4.90;62.60
12006;DHT22;6062;47.294;12.182;2022-11-20T09:12:53;5.60;62.50
12006;DHT22;6062;47.294;12.182;2022-11-20T09:15:20;6.30;61.60
12006;DHT22;6062;47.294;12.182;2022-11-20T09:17:57;7.00;59.30
12006;DHT22;6062;47.294;12.182;2022-11-20T09:20:25;7.70;57.30
12006;DHT22;6062;47.294;12.182;2022-11-20T09:22:52;8.30;55.90
12006;DHT22;6062;47.294;12.182;2022-11-20T09:25:17;8.90;54.70
12006;DHT22;6062;47.294;12.182;2022-11-20T09:27:43;9.50;54.00
12006;DHT22;6062;47.294;12.182;2022-11-20T09:30:12;10.10;54.10
12006;DHT22;6062;47.294;12.182;2022-11-20T09:32:39;10.70;53.50
12006;DHT22;6062;47.294;12.182;2022-11-20T09:35:05;11.30;51.70
12006;DHT22;6062;47.294;12.182;2022-11-20T09:37:31;11.90;50.70
12006;DHT22;6062;47.294;12.182;2022-11-20T09:39:57;12.60;49.10
12006;DHT22;6062;47.294;12.182;2022-11-20T09:56:54;16.80;38.10
12006;DHT22;6062;47.294;12.182;2022-11-20T10:02:03;17.90;36.60
12006;DHT22;6062;47.294;12.182;2022-11-20T10:04:44;18.30;35.80
12006;DHT22;6062;47.294;12.182;2022-11-20T10:07:39;18.60;34.10
12006;DHT22;6062;47.294;12.182;2022-11-20T10:10:29;18.90;32.60
12006;DHT22;6062;47.294;12.182;2022-11-20T10:13:24;19.20;32.40
12006;DHT22;6062;47.294;12.182;2022-11-20T10:16:40;19.50;31.80
12006;DHT22;6062;47.294;12.182;2022-11-20T10:19:34;19.70;30.30
12006;DHT22;6062;47.294;12.182;2022-11-20T10:25:39;19.60;28.70
12006;DHT22;6062;47.294;12.182;2022-11-20T10:28:42;19.20;28.10
12006;DHT22;6062;47.294;12.182;2022-11-20T10:31:32;18.50;27.90
12006;DHT22;6062;47.294;12.182;2022-11-20T10:34:05;17.70;28.10
12006;DHT22;6062;47.294;12.182;2022-11-20T10:36:49;16.90;28.80
12006;DHT22;6062;47.294;12.182;2022-11-20T10:42:22;15.20;29.80
12006;DHT22;6062;47.294;12.182;2022-11-20T10:45:18;14.20;30.20
12006;DHT22;6062;47.294;12.182;2022-11-20T10:47:46;13.30;31.60
12006;DHT22;6062;47.294;12.182;2022-11-20T10:50:18;12.40;32.80
12006;DHT22;6062;47.294;12.182;2022-11-20T10:53:06;11.80;34.00
12006;DHT22;6062;47.294;12.182;2022-11-20T10:55:53;11.20;34.30
12006;DHT22;6062;47.294;12.182;2022-11-20T11:01:29;10.20;35.10
12006;DHT22;6062;47.294;12.182;2022-11-20T11:03:55;9.80;35.60
12006;DHT22;6062;47.294;12.182;2022-11-20T11:06:35;9.40;36.00
12006;DHT22;6062;47.294;12.182;2022-11-20T11:09:15;9.00;36.60
12006;DHT22;6062;47.294;12.182;2022-11-20T11:11:44;8.70;37.80
12006;DHT22;6062;47.294;12.182;2022-11-20T11:14:14;8.50;38.50
12006;DHT22;6062;47.294;12.182;2022-11-20T11:16:57;8.40;38.80
12006;DHT22;6062;47.294;12.182;2022-11-20T11:19:24;8.30;39.00
12006;DHT22;6062;47.294;12.182;2022-11-20T11:24:28;8.30;39.40
12006;DHT22;6062;47.294;12.182;2022-11-20T11:27:12;8.30;39.80
12006;DHT22;6062;47.294;12.182;2022-11-20T11:29:42;8.30;40.30
12006;DHT22;6062;47.294;12.182;2022-11-20T11:32:13;8.50;40.40
12006;DHT22;6062;47.294;12.182;2022-11-20T11:34:40;8.60;40.40
12006;DHT22;6062;47.294;12.182;2022-11-20T11:37:25;8.90;40.60
12006;DHT22;6062;47.294;12.182;2022-11-20T11:39:59;9.30;40.50
12006;DHT22;6062;47.294;12.182;2022-11-20T11:42:25;9.70;40.00
12006;DHT22;6062;47.294;12.182;2022-11-20T11:44:53;10.00;39.50
12006;DHT22;6062;47.294;12.182;2022-11-20T11:47:36;10.30;39.00
12006;DHT22;6062;47.294;12.182;2022-11-20T11:52:55;10.70;38.00
12006;DHT22;6062;47.294;12.182;2022-11-20T11:58:07;11.20;38.60
12006;DHT22;6062;47.294;12.182;2022-11-20T12:00:49;11.60;38.40
12006;DHT22;6062;47.294;12.182;2022-11-20T12:03:35;12.00;37.10
12006;DHT22;6062;47.294;12.182;2022-11-20T12:06:13;12.30;35.90
12006;DHT22;6062;47.294;12.182;2022-11-20T12:08:43;12.50;35.40
12006;DHT22;6062;47.294;12.182;2022-11-20T12:16:45;13.00;34.80
12006;DHT22;6062;47.294;12.182;2022-11-20T12:19:13;13.20;34.50
12006;DHT22;6062;47.294;12.182;2022-11-20T12:21:49;13.20;33.80
12006;DHT22;6062;47.294;12.182;2022-11-20T12:24:34;13.20;33.20
12006;DHT22;6062;47.294;12.182;2022-11-20T12:29:51;13.10;32.60
12006;DHT22;6062;47.294;12.182;2022-11-20T12:35:42;12.60;32.50
12006;DHT22;6062;47.294;12.182;2022-11-20T12:45:20;11.60;33.00
12006;DHT22;6062;47.294;12.182;2022-11-20T12:48:20;11.20;33.00
12006;DHT22;6062;47.294;12.182;2022-11-20T12:51:21;10.80;33.50
12006;DHT22;6062;47.294;12.182;2022-11-20T12:54:43;10.40;33.80
12006;DHT22;6062;47.294;12.182;2022-11-20T13:00:24;9.60;34.20
12006;DHT22;6062;47.294;12.182;2022-11-20T13:08:40;8.50;35.90
12006;DHT22;6062;47.294;12.182;2022-11-20T13:11:25;8.30;36.30
12006;DHT22;6062;47.294;12.182;2022-11-20T13:14:04;8.10;36.50
12006;DHT22;6062;47.294;12.182;2022-11-20T13:19:26;7.60;36.70
12006;DHT22;6062;47.294;12.182;2022-11-20T13:21:53;7.40;36.90
12006;DHT22;6062;47.294;12.182;2022-11-20T13:29:34;6.60;38.00
12006;DHT22;6062;47.294;12.182;2022-11-20T13:32:12;6.50;38.20
12006;DHT22;6062;47.294;12.182;2022-11-20T13:34:52;6.30;39.30
12006;DHT22;6062;47.294;12.182;2022-11-20T13:37:34;6.10;39.30
12006;DHT22;6062;47.294;12.182;2022-11-20T13:42:40;5.70;39.10
12006;DHT22;6062;47.294;12.182;2022-11-20T13:45:22;5.60;39.40
12006;DHT22;6062;47.294;12.182;2022-11-20T13:47:50;5.40;39.70
12006;DHT22;6062;47.294;12.182;2022-11-20T13:50:16;5.30;39.80
12006;DHT22;6062;47.294;12.182;2022-11-20T13:56:14;5.00;41.40
12006;DHT22;6062;47.294;12.182;2022-11-20T14:01:37;4.80;41.50
12006;DHT22;6062;47.294;12.182;2022-11-20T14:04:07;4.70;41.60
12006;DHT22;6062;47.294;12.182;2022-11-20T14:06:44;4.60;41.60
12006;DHT22;6062;47.294;12.182;2022-11-20T14:09:23;4.50;41.80
12006;DHT22;6062;47.294;12.182;2022-11-20T14:11:54;4.40;42.00
12006;DHT22;6062;47.294;12.182;2022-11-20T14:14:25;4.30;42.30
12006;DHT22;6062;47.294;12.182;2022-11-20T14:17:07;4.10;42.50
12006;DHT22;6062;47.294;12.182;2022-11-20T14:19:34;4.00;42.80
12006;DHT22;6062;47.294;12.182;2022-11-20T14:24:33;3.80;43.00
12006;DHT22;6062;47.294;12.182;2022-11-20T14:26:59;3.60;43.80
12006;DHT22;6062;47.294;12.182;2022-11-20T14:29:35;3.50;43.40
12006;DHT22;6062;47.294;12.182;2022-11-20T14:32:03;3.50;43.90
12006;DHT22;6062;47.294;12.182;2022-11-20T14:34:32;3.40;43.90
12006;DHT22;6062;47.294;12.182;2022-11-20T14:37:05;3.30;44.20
12006;DHT22;6062;47.294;12.182;2022-11-20T14:39:37;3.30;44.40
12006;DHT22;6062;47.294;12.182;2022-11-20T14:42:18;3.30;44.60
12006;DHT22;6062;47.294;12.182;2022-11-20T14:44:48;3.20;44.60
12006;DHT22;6062;47.294;12.182;2022-11-20T14:47:19;3.20;44.60
12006;DHT22;6062;47.294;12.182;2022-11-20T14:49:47;3.20;44.40
12006;DHT22;6062;47.294;12.182;2022-11-20T14:52:20;3.10;44.20
12006;DHT22;6062;47.294;12.182;2022-11-20T14:54:48;3.10;44.40
12006;DHT22;6062;47.294;12.182;2022-11-20T15:02:44;2.80;44.50
12006;DHT22;6062;47.294;12.182;2022-11-20T15:05:11;2.80;44.60
12006;DHT22;6062;47.294;12.182;2022-11-20T15:07:39;2.70;44.70
12006;DHT22;6062;47.294;12.182;2022-11-20T15:10:22;2.60;44.90
12006;DHT22;6062;47.294;12.182;2022-11-20T15:12:54;2.40;45.00
12006;DHT22;6062;47.294;12.182;2022-11-20T15:15:36;2.30;45.20
12006;DHT22;6062;47.294;12.182;2022-11-20T15:18:40;2.30;45.50
12006;DHT22;6062;47.294;12.182;2022-11-20T15:21:14;2.10;45.60
12006;DHT22;6062;47.294;12.182;2022-11-20T15:23:41;2.00;45.50
12006;DHT22;6062;47.294;12.182;2022-11-20T15:26:08;1.90;45.70
12006;DHT22;6062;47.294;12.182;2022-11-20T15:28:39;1.70;45.60
12006;DHT22;6062;47.294;12.182;2022-11-20T15:31:11;1.60;45.90
12006;DHT22;6062;47.294;12.182;2022-11-20T15:33:38;1.50;45.90
12006;DHT22;6062;47.294;12.182;2022-11-20T15:36:04;1.40;45.90
12006;DHT22;6062;47.294;12.182;2022-11-20T15:38:30;1.30;46.10
12006;DHT22;6062;47.294;12.182;2022-11-20T15:40:56;1.20;46.30
12006;DHT22;6062;47.294;12.182;2022-11-20T15:43:22;1.20;46.30
12006;DHT22;6062;47.294;12.182;2022-11-20T15:45:56;1.10;46.40
12006;DHT22;6062;47.294;12.182;2022-11-20T15:48:37;1.00;46.50
12006;DHT22;6062;47.294;12.182;2022-11-20T15:53:45;0.80;47.00
12006;DHT22;6062;47.294;12.182;2022-11-20T15:56:12;0.70;46.90
12006;DHT22;6062;47.294;12.182;2022-11-20T15:58:38;0.60;47.10
12006;DHT22;6062;47.294;12.182;2022-11-20T16:01:04;0.50;47.10
12006;DHT22;6062;47.294;12.182;2022-11-20T16:03:30;0.40;47.30
12006;DHT22;6062;47.294;12.182;2022-11-20T16:05:56;0.40;47.50
12006;DHT22;6062;47.294;12.182;2022-11-20T16:08:22;0.30;47.50
12006;DHT22;6062;47.294;12.182;2022-11-20T16:10:47;0.20;47.70
12006;DHT22;6062;47.294;12.182;2022-11-20T16:13:15;0.10;48.10
12006;DHT22;6062;47.294;12.182;2022-11-20T16:16:07;0.00;49.10
12006;DHT22;6062;47.294;12.182;2022-11-20T16:18:44;0.00;49.00
12006;DHT22;6062;47.294;12.182;2022-11-20T16:21:11;-0.10;49.20
12006;DHT22;6062;47.294;12.182;2022-11-20T16:23:40;-0.10;50.10
12006;DHT22;6062;47.294;12.182;2022-11-20T16:26:12;-0.20;50.60
12006;DHT22;6062;47.294;12.182;2022-11-20T16:28:40;-0.20;50.40
12006;DHT22;6062;47.294;12.182;2022-11-20T16:31:11;-0.30;50.30
12006;DHT22;6062;47.294;12.182;2022-11-20T16:33:40;-0.30;50.40
12006;DHT22;6062;47.294;12.182;2022-11-20T16:38:34;-0.40;50.80
12006;DHT22;6062;47.294;12.182;2022-11-20T16:41:00;-0.40;50.90
12006;DHT22;6062;47.294;12.182;2022-11-20T16:43:26;-0.40;51.00
12006;DHT22;6062;47.294;12.182;2022-11-20T16:45:52;-0.40;51.00
12006;DHT22;6062;47.294;12.182;2022-11-20T16:48:18;-0.50;51.00
12006;DHT22;6062;47.294;12.182;2022-11-20T16:50:51;-0.50;51.10
12006;DHT22;6062;47.294;12.182;2022-11-20T16:53:19;-0.50;51.20
12006;DHT22;6062;47.294;12.182;2022-11-20T16:55:46;-0.60;51.00
12006;DHT22;6062;47.294;12.182;2022-11-20T16:58:13;-0.60;51.10
12006;DHT22;6062;47.294;12.182;2022-11-20T17:00:40;-0.60;51.30
12006;DHT22;6062;47.294;12.182;2022-11-20T17:03:07;-0.70;51.30
12006;DHT22;6062;47.294;12.182;2022-11-20T17:05:33;-0.70;51.40
12006;DHT22;6062;47.294;12.182;2022-11-20T17:08:00;-0.70;51.80
12006;DHT22;6062;47.294;12.182;2022-11-20T17:10:26;-0.70;52.10
12006;DHT22;6062;47.294;12.182;2022-11-20T17:12:51;-0.80;52.00
12006;DHT22;6062;47.294;12.182;2022-11-20T17:15:17;-0.80;52.00
12006;DHT22;6062;47.294;12.182;2022-11-20T17:17:43;-0.80;52.60
12006;DHT22;6062;47.294;12.182;2022-11-20T17:20:09;-0.80;52.00
12006;DHT22;6062;47.294;12.182;2022-11-20T17:22:36;-0.80;52.00
12006;DHT22;6062;47.294;12.182;2022-11-20T17:25:03;-0.80;51.90
12006;DHT22;6062;47.294;12.182;2022-11-20T17:27:29;-0.80;51.90
12006;DHT22;6062;47.294;12.182;2022-11-20T17:29:54;-0.80;52.00
12006;DHT22;6062;47.294;12.182;2022-11-20T17:32:22;-0.80;52.10
12006;DHT22;6062;47.294;12.182;2022-11-20T17:34:47;-0.90;52.00
12006;DHT22;6062;47.294;12.182;2022-11-20T17:37:13;-0.90;52.00
12006;DHT22;6062;47.294;12.182;2022-11-20T17:39:38;-0.90;51.90